createdAt,value
2022-12-07T00:00:11.086Z,6.33
2022-12-07T00:01:20.435Z,6.10
2022-12-07T00:02:23.627Z,6.12
2022-12-07T00:03:26.837Z,6.31
2022-12-07T00:04:30.070Z,6.23
2022-12-07T00:05:33.380Z,6.23
2022-12-07T00:06:39.791Z,7.31
2022-12-07T00:07:43.104Z,6.57
2022-12-07T00:08:46.989Z,6.58
2022-12-07T00:09:50.273Z,5.96
2022-12-07T00:10:53.436Z,5.84
2022-12-07T00:11:56.558Z,6.59
2022-12-07T00:12:59.745Z,6.12
2022-12-07T00:14:06.340Z,6.77
2022-12-07T00:15:10.112Z,6.43
2022-12-07T00:16:18.637Z,6.65
2022-12-07T00:17:21.890Z,6.50
2022-12-07T00:18:25.096Z,5.81
2022-12-07T00:19:28.392Z,7.16
2022-12-07T00:20:31.630Z,6.51
2022-12-07T00:21:36.305Z,6.42
2022-12-07T00:22:39.634Z,6.38
2022-12-07T00:23:44.630Z,7.05
2022-12-07T00:24:47.840Z,6.32
2022-12-07T00:25:51.072Z,6.58
2022-12-07T00:26:54.261Z,6.22
2022-12-07T00:27:57.548Z,6.74
2022-12-07T00:29:03.440Z,6.77
2022-12-07T00:30:07.797Z,6.36
2022-12-07T00:31:13.127Z,6.42
2022-12-07T00:32:16.373Z,6.33
2022-12-07T00:33:19.533Z,7.36
2022-12-07T00:34:22.628Z,6.50
2022-12-07T00:35:25.811Z,6.62
2022-12-07T00:36:29.151Z,6.42
2022-12-07T00:37:32.255Z,6.74
2022-12-07T00:38:37.318Z,6.62
2022-12-07T00:39:40.524Z,5.92
2022-12-07T00:40:43.729Z,6.17
2022-12-07T00:41:46.853Z,5.66
2022-12-07T00:42:50.032Z,6.37
2022-12-07T00:43:53.553Z,6.22
2022-12-07T00:44:56.751Z,6.54
2022-12-07T00:45:59.930Z,6.47
2022-12-07T00:47:03.243Z,6.11
2022-12-07T00:48:06.481Z,6.11
2022-12-07T00:49:09.575Z,6.16
2022-12-07T00:50:12.846Z,6.10
2022-12-07T00:51:18.344Z,6.87
2022-12-07T00:52:21.572Z,6.31
2022-12-07T00:53:25.180Z,6.10
2022-12-07T00:54:28.395Z,6.56
2022-12-07T00:55:35.217Z,5.89
2022-12-07T00:56:38.443Z,5.81
2022-12-07T00:57:41.524Z,6.03
2022-12-07T00:58:44.952Z,6.78
2022-12-07T00:59:48.955Z,5.81
2022-12-07T01:00:52.260Z,6.33
2022-12-07T01:01:55.451Z,6.28
2022-12-07T01:02:58.706Z,6.44
2022-12-07T01:04:02.696Z,5.77
2022-12-07T01:05:07.023Z,5.96
2022-12-07T01:06:10.118Z,6.40
2022-12-07T01:07:13.176Z,6.41
2022-12-07T01:08:16.429Z,7.10
2022-12-07T01:09:19.671Z,7.05
2022-12-07T01:10:22.808Z,6.76
2022-12-07T01:11:28.399Z,5.72
2022-12-07T01:12:31.506Z,6.23
2022-12-07T01:13:35.976Z,6.14
2022-12-07T01:14:39.213Z,5.78
2022-12-07T01:15:44.096Z,6.34
2022-12-07T01:16:47.273Z,6.31
2022-12-07T01:17:50.598Z,6.06
2022-12-07T01:18:55.375Z,5.98
2022-12-07T01:19:58.649Z,6.40
2022-12-07T01:21:11.760Z,6.98
2022-12-07T01:22:14.957Z,6.37
2022-12-07T01:23:18.036Z,6.49
2022-12-07T01:24:21.114Z,5.58
2022-12-07T01:25:24.186Z,6.36
2022-12-07T01:26:27.816Z,6.34
2022-12-07T01:27:30.997Z,7.21
2022-12-07T01:28:34.608Z,6.61
2022-12-07T01:29:37.886Z,6.52
2022-12-07T01:30:41.124Z,6.48
2022-12-07T01:31:44.274Z,6.68
2022-12-07T01:32:47.394Z,6.61
2022-12-07T01:33:53.622Z,7.11
2022-12-07T01:34:56.836Z,5.91
2022-12-07T01:36:04.836Z,6.07
2022-12-07T01:37:08.061Z,6.37
2022-12-07T01:38:11.252Z,6.34
2022-12-07T01:39:14.456Z,6.44
2022-12-07T01:40:17.724Z,6.79
2022-12-07T01:41:21.717Z,6.28
2022-12-07T01:42:24.917Z,6.79
2022-12-07T01:43:30.409Z,6.89
2022-12-07T01:44:33.534Z,6.63
2022-12-07T01:45:41.658Z,6.44
2022-12-07T01:46:57.527Z,6.92
2022-12-07T01:48:00.768Z,6.55
2022-12-07T01:49:07.253Z,6.27
2022-12-07T01:50:10.830Z,6.42
2022-12-07T01:51:15.718Z,6.97
2022-12-07T01:52:31.313Z,6.35
2022-12-07T01:53:37.952Z,6.47
2022-12-07T01:54:42.385Z,6.07
2022-12-07T01:55:48.310Z,6.67
2022-12-07T01:56:54.358Z,6.34
2022-12-07T01:57:58.116Z,5.87
2022-12-07T01:59:01.656Z,5.84
2022-12-07T02:00:07.382Z,5.71
2022-12-07T02:01:17.158Z,6.05
2022-12-07T02:02:29.677Z,6.21
2022-12-07T02:03:39.381Z,6.12
2022-12-07T02:04:42.922Z,6.04
2022-12-07T02:05:47.901Z,6.34
2022-12-07T02:06:52.226Z,6.11
2022-12-07T02:07:57.591Z,5.99
2022-12-07T02:09:00.843Z,6.58
2022-12-07T02:10:22.030Z,6.22
2022-12-07T02:11:25.342Z,6.45
2022-12-07T02:12:28.628Z,6.24
2022-12-07T02:13:34.610Z,6.64
2022-12-07T02:14:38.210Z,6.98
2022-12-07T02:15:59.852Z,6.48
2022-12-07T02:17:24.697Z,7.18
2022-12-07T02:18:40.623Z,6.74
2022-12-07T02:20:08.344Z,6.17
2022-12-07T02:21:21.067Z,6.35
2022-12-07T02:22:47.227Z,5.77
2022-12-07T02:24:15.196Z,6.12
2022-12-07T02:25:37.109Z,6.96
2022-12-07T02:26:46.535Z,6.32
2022-12-07T02:28:01.671Z,6.66
2022-12-07T02:29:14.122Z,6.55
2022-12-07T02:30:20.551Z,6.97
2022-12-07T02:31:27.255Z,6.48
2022-12-07T02:32:45.934Z,6.23
2022-12-07T02:35:16.398Z,6.92
2022-12-07T02:36:31.935Z,6.03
2022-12-07T02:37:50.527Z,6.59
2022-12-07T02:39:06.199Z,6.47
2022-12-07T02:40:32.115Z,6.16
2022-12-07T02:41:38.766Z,5.87
2022-12-07T02:42:45.442Z,5.86
2022-12-07T02:43:55.100Z,7.05
2022-12-07T02:45:00.022Z,6.74
2022-12-07T02:46:06.913Z,6.19
2022-12-07T02:47:13.834Z,6.12
2022-12-07T02:48:19.228Z,6.59
2022-12-07T02:49:24.445Z,6.34
2022-12-07T02:50:28.127Z,6.71
2022-12-07T02:51:32.099Z,6.98
2022-12-07T02:52:35.200Z,6.56
2022-12-07T02:53:42.955Z,6.72
2022-12-07T02:54:46.075Z,6.95
2022-12-07T02:55:49.654Z,6.39
2022-12-07T02:57:08.674Z,7.04
2022-12-07T02:58:15.382Z,6.82
2022-12-07T02:59:37.141Z,6.46
2022-12-07T03:00:46.686Z,6.41
2022-12-07T03:02:16.093Z,5.82
2022-12-07T03:03:19.699Z,5.69
2022-12-07T03:06:07.210Z,7.28
2022-12-07T03:07:29.036Z,6.89
2022-12-07T03:08:50.799Z,6.51
2022-12-07T03:11:32.440Z,6.73
2022-12-07T03:12:45.201Z,6.31
2022-12-07T03:14:08.162Z,6.63
2022-12-07T03:15:14.827Z,7.17
2022-12-07T03:16:27.758Z,6.81
2022-12-07T03:17:34.552Z,7.09
2022-12-07T03:18:41.293Z,7.39
2022-12-07T03:19:46.905Z,6.67
2022-12-07T03:20:53.415Z,7.23
2022-12-07T03:22:02.956Z,7.02
2022-12-07T03:23:10.028Z,6.93
2022-12-07T03:24:22.403Z,7.13
2022-12-07T03:25:27.526Z,6.81
2022-12-07T03:26:34.192Z,6.41
2022-12-07T03:27:56.454Z,6.58
2022-12-07T03:29:03.233Z,6.56
2022-12-07T03:30:13.073Z,6.81
2022-12-07T03:31:29.013Z,6.13
2022-12-07T03:32:35.795Z,6.54
2022-12-07T03:33:45.216Z,5.72
2022-12-07T03:34:51.885Z,6.29
2022-12-07T03:36:10.461Z,5.67
2022-12-07T03:37:19.911Z,6.28
2022-12-07T03:38:26.563Z,6.05
2022-12-07T03:39:39.094Z,5.77
2022-12-07T03:41:00.974Z,6.07
2022-12-07T03:42:07.088Z,5.93
2022-12-07T03:43:10.929Z,6.40
2022-12-07T03:44:16.136Z,6.78
2022-12-07T03:45:21.931Z,6.07
2022-12-07T03:46:37.734Z,6.39
2022-12-07T03:47:50.449Z,6.86
2022-12-07T03:49:28.958Z,6.76
2022-12-07T03:50:53.725Z,5.94
2022-12-07T03:52:20.003Z,6.29
2022-12-07T03:53:29.365Z,6.53
2022-12-07T03:54:39.050Z,6.18
2022-12-07T03:55:44.872Z,6.48
2022-12-07T03:56:49.816Z,6.37
2022-12-07T03:57:56.388Z,7.07
2022-12-07T03:58:59.536Z,6.28
2022-12-07T04:00:05.601Z,6.95
2022-12-07T04:01:11.300Z,7.30
2022-12-07T04:02:15.335Z,6.74
2022-12-07T04:03:18.632Z,7.44
2022-12-07T04:04:23.813Z,6.87
2022-12-07T04:05:27.331Z,7.54
2022-12-07T04:06:30.767Z,7.42
2022-12-07T04:07:34.087Z,6.75
2022-12-07T04:08:37.508Z,6.94
2022-12-07T04:09:40.733Z,6.54
2022-12-07T04:10:44.239Z,5.92
2022-12-07T04:11:47.820Z,6.50
2022-12-07T04:12:51.104Z,7.04
2022-12-07T04:14:12.411Z,5.79
2022-12-07T04:15:15.914Z,6.33
2022-12-07T04:16:19.951Z,6.58
2022-12-07T04:17:23.324Z,5.99
2022-12-07T04:18:26.653Z,6.04
2022-12-07T04:19:32.625Z,6.26
2022-12-07T04:20:35.758Z,6.22
2022-12-07T04:21:39.086Z,6.33
2022-12-07T04:22:42.195Z,6.72
2022-12-07T04:23:45.403Z,6.21
2022-12-07T04:24:48.600Z,6.97
2022-12-07T04:25:51.734Z,6.58
2022-12-07T04:26:55.926Z,6.81
2022-12-07T04:27:59.240Z,6.49
2022-12-07T04:29:07.391Z,6.81
2022-12-07T04:30:08.768Z,6.82
2022-12-07T04:31:12.052Z,6.49
2022-12-07T04:32:15.231Z,7.08
2022-12-07T04:33:18.441Z,6.47
2022-12-07T04:34:21.760Z,7.04
2022-12-07T04:35:24.993Z,6.24
2022-12-07T04:36:28.288Z,6.52
2022-12-07T04:37:31.549Z,5.99
2022-12-07T04:38:34.815Z,6.74
2022-12-07T04:39:38.006Z,5.66
2022-12-07T04:40:41.277Z,6.20
2022-12-07T04:41:44.469Z,6.19
2022-12-07T04:42:47.686Z,6.13
2022-12-07T04:43:50.970Z,5.98
2022-12-07T04:44:54.171Z,6.71
2022-12-07T04:45:57.380Z,5.98
2022-12-07T04:47:00.748Z,7.01
2022-12-07T04:48:04.038Z,6.24
2022-12-07T04:49:07.143Z,6.20
2022-12-07T04:50:11.117Z,6.02
2022-12-07T04:51:17.191Z,5.66
2022-12-07T04:52:20.293Z,6.11
2022-12-07T04:53:23.556Z,5.96
2022-12-07T04:54:26.822Z,5.96
2022-12-07T04:55:30.142Z,5.29
2022-12-07T04:56:35.096Z,6.32
2022-12-07T04:57:38.262Z,7.21
2022-12-07T04:58:42.279Z,6.34
2022-12-07T04:59:46.117Z,6.49
2022-12-07T05:00:49.599Z,5.92
2022-12-07T05:01:52.737Z,6.46
2022-12-07T05:02:55.990Z,6.65
2022-12-07T05:03:59.238Z,6.53
2022-12-07T05:05:02.373Z,6.39
2022-12-07T05:06:11.794Z,6.36
2022-12-07T05:07:11.793Z,6.17
2022-12-07T05:08:14.907Z,5.91
2022-12-07T05:09:18.064Z,6.01
2022-12-07T05:10:21.388Z,5.75
2022-12-07T05:11:39.490Z,6.08
2022-12-07T05:12:42.665Z,6.21
2022-12-07T05:13:45.839Z,5.74
2022-12-07T05:14:48.925Z,6.16
2022-12-07T05:15:52.117Z,5.85
2022-12-07T05:16:55.343Z,6.26
2022-12-07T05:17:58.704Z,6.51
2022-12-07T05:19:01.782Z,5.81
2022-12-07T05:20:06.139Z,6.69
2022-12-07T05:21:09.338Z,5.89
2022-12-07T05:22:13.870Z,6.46
2022-12-07T05:23:17.132Z,6.49
2022-12-07T05:24:20.303Z,5.91
2022-12-07T05:25:23.392Z,6.09
2022-12-07T05:26:26.585Z,6.27
2022-12-07T05:27:29.679Z,5.86
2022-12-07T05:28:32.793Z,6.16
2022-12-07T05:29:35.962Z,5.97
2022-12-07T05:30:39.103Z,6.34
2022-12-07T05:31:42.925Z,6.41
2022-12-07T05:32:46.162Z,5.70
2022-12-07T05:33:49.299Z,6.06
2022-12-07T05:34:54.187Z,6.33
2022-12-07T05:35:57.300Z,6.78
2022-12-07T05:37:00.542Z,6.12
2022-12-07T05:38:03.688Z,6.77
2022-12-07T05:39:07.797Z,6.75
2022-12-07T05:40:12.236Z,6.42
2022-12-07T05:41:36.068Z,6.78
2022-12-07T05:42:39.811Z,7.02
2022-12-07T05:43:43.013Z,6.87
2022-12-07T05:44:47.021Z,6.81
2022-12-07T05:45:50.270Z,6.84
2022-12-07T05:46:53.412Z,7.30
2022-12-07T05:47:56.658Z,7.08
2022-12-07T05:48:59.873Z,7.63
2022-12-07T05:50:04.733Z,6.51
2022-12-07T05:51:08.066Z,7.24
2022-12-07T05:52:11.253Z,6.74
2022-12-07T05:53:19.921Z,7.12
2022-12-07T05:54:19.569Z,6.39
2022-12-07T05:55:22.787Z,6.13
2022-12-07T05:56:27.128Z,6.49
2022-12-07T05:57:30.334Z,7.17
2022-12-07T05:58:52.022Z,6.09
2022-12-07T05:59:55.338Z,6.26
2022-12-07T06:00:58.484Z,6.36
2022-12-07T06:02:04.276Z,6.92
2022-12-07T06:03:07.882Z,7.31
2022-12-07T06:04:11.240Z,7.35
2022-12-07T06:05:14.502Z,7.39
2022-12-07T06:06:17.987Z,7.08
2022-12-07T06:07:21.265Z,7.07
2022-12-07T06:08:24.586Z,7.32
2022-12-07T06:09:28.715Z,7.59
2022-12-07T06:10:32.017Z,7.78
2022-12-07T06:11:53.472Z,7.28
2022-12-07T06:12:56.716Z,7.70
2022-12-07T06:13:59.808Z,6.77
2022-12-07T06:15:03.409Z,7.54
2022-12-07T06:16:07.404Z,7.60
2022-12-07T06:17:10.988Z,6.89
2022-12-07T06:18:14.197Z,7.32
2022-12-07T06:19:17.276Z,7.50
2022-12-07T06:20:20.447Z,7.40
2022-12-07T06:21:23.536Z,7.18
2022-12-07T06:22:26.645Z,6.51
2022-12-07T06:23:29.727Z,6.86
2022-12-07T06:24:33.686Z,6.42
2022-12-07T06:25:36.775Z,7.12
2022-12-07T06:26:40.568Z,7.12
2022-12-07T06:27:43.791Z,6.65
2022-12-07T06:28:46.853Z,7.74
2022-12-07T06:29:50.012Z,7.74
2022-12-07T06:31:00.469Z,7.34
2022-12-07T06:32:04.257Z,7.13
2022-12-07T06:33:07.530Z,6.81
2022-12-07T06:34:13.976Z,7.28
2022-12-07T06:35:17.249Z,7.04
2022-12-07T06:36:26.900Z,7.36
2022-12-07T06:37:25.538Z,6.62
2022-12-07T06:38:28.735Z,7.03
2022-12-07T06:39:31.815Z,6.49
2022-12-07T06:40:34.895Z,6.72
2022-12-07T06:41:39.310Z,6.59
2022-12-07T06:42:42.653Z,7.09
2022-12-07T06:43:45.797Z,6.86
2022-12-07T06:44:49.366Z,6.81
2022-12-07T06:45:52.631Z,6.76
2022-12-07T06:47:12.328Z,6.94
2022-12-07T06:48:00.783Z,6.18
2022-12-07T06:49:05.475Z,6.91
2022-12-07T06:50:10.009Z,7.11
2022-12-07T06:51:13.142Z,6.81
2022-12-07T06:52:16.341Z,6.46
2022-12-07T06:53:19.474Z,7.37
2022-12-07T06:54:22.705Z,7.23
2022-12-07T06:55:25.870Z,6.41
2022-12-07T06:56:29.316Z,5.90
2022-12-07T06:57:32.452Z,6.42
2022-12-07T06:58:35.535Z,6.85
2022-12-07T06:59:38.783Z,6.39
2022-12-07T07:00:41.841Z,6.63
2022-12-07T07:01:45.135Z,5.71
2022-12-07T07:02:48.423Z,6.88
2022-12-07T07:03:51.805Z,6.39
2022-12-07T07:04:55.030Z,6.49
2022-12-07T07:05:58.223Z,6.29
2022-12-07T07:07:01.542Z,6.41
2022-12-07T07:08:21.895Z,7.06
2022-12-07T07:09:10.398Z,6.86
2022-12-07T07:10:14.041Z,6.45
2022-12-07T07:11:17.602Z,6.91
2022-12-07T07:12:20.814Z,7.04
2022-12-07T07:13:24.335Z,7.12
2022-12-07T07:14:27.657Z,6.44
2022-12-07T07:15:31.305Z,6.78
2022-12-07T07:16:34.596Z,6.88
2022-12-07T07:17:37.839Z,6.64
2022-12-07T07:18:41.068Z,6.59
2022-12-07T07:19:44.371Z,6.62
2022-12-07T07:20:47.683Z,6.83
2022-12-07T07:21:50.895Z,6.72
2022-12-07T07:22:57.353Z,6.47
2022-12-07T07:24:00.752Z,6.88
2022-12-07T07:25:04.616Z,6.61
2022-12-07T07:26:08.348Z,6.08
2022-12-07T07:27:11.556Z,6.85
2022-12-07T07:28:15.702Z,6.86
2022-12-07T07:29:19.220Z,7.04
2022-12-07T07:30:22.629Z,6.36
2022-12-07T07:31:25.957Z,6.40
2022-12-07T07:32:29.250Z,6.91
2022-12-07T07:33:32.457Z,6.41
2022-12-07T07:34:35.693Z,6.57
2022-12-07T07:35:39.682Z,6.48
2022-12-07T07:36:43.235Z,6.32
2022-12-07T07:37:46.362Z,6.24
2022-12-07T07:38:49.531Z,6.57
2022-12-07T07:39:52.621Z,6.39
2022-12-07T07:40:55.807Z,7.09
2022-12-07T07:41:59.001Z,5.93
2022-12-07T07:43:02.236Z,6.56
2022-12-07T07:44:05.423Z,6.92
2022-12-07T07:45:09.418Z,6.28
2022-12-07T07:46:13.166Z,7.52
2022-12-07T07:47:16.467Z,6.96
2022-12-07T07:48:19.674Z,6.64
2022-12-07T07:49:22.819Z,6.94
2022-12-07T07:50:25.909Z,6.82
2022-12-07T07:51:29.067Z,6.56
2022-12-07T07:52:32.066Z,6.65
2022-12-07T07:53:35.253Z,6.86
2022-12-07T07:54:39.016Z,6.39
2022-12-07T07:55:42.110Z,6.61
2022-12-07T07:56:45.212Z,6.54
2022-12-07T07:57:54.252Z,6.37
2022-12-07T07:58:53.868Z,7.44
2022-12-07T07:59:57.001Z,6.69
2022-12-07T08:01:08.443Z,7.84
2022-12-07T08:02:19.990Z,7.26
2022-12-07T08:03:23.390Z,7.02
2022-12-07T08:04:26.639Z,6.21
2022-12-07T08:05:29.803Z,6.29
2022-12-07T08:06:33.101Z,6.29
2022-12-07T08:07:36.354Z,6.76
2022-12-07T08:08:39.508Z,6.11
2022-12-07T08:09:42.734Z,6.61
2022-12-07T08:10:45.964Z,6.41
2022-12-07T08:11:49.042Z,6.27
2022-12-07T08:13:10.538Z,6.14
2022-12-07T08:14:13.644Z,6.55
2022-12-07T08:15:17.236Z,6.67
2022-12-07T08:16:20.533Z,6.81
2022-12-07T08:17:23.680Z,6.42
2022-12-07T08:18:26.788Z,6.92
2022-12-07T08:19:30.004Z,6.26
2022-12-07T08:20:34.222Z,7.35
2022-12-07T08:21:38.452Z,7.13
2022-12-07T08:22:41.585Z,6.34
2022-12-07T08:23:44.677Z,6.64
2022-12-07T08:24:47.850Z,6.28
2022-12-07T08:25:51.071Z,6.21
2022-12-07T08:26:54.456Z,6.77
2022-12-07T08:27:57.565Z,6.42
2022-12-07T08:29:00.841Z,6.46
2022-12-07T08:30:05.023Z,6.83
2022-12-07T08:31:14.610Z,7.08
2022-12-07T08:32:17.839Z,7.29
2022-12-07T08:33:22.716Z,7.44
2022-12-07T08:34:25.922Z,7.31
2022-12-07T08:35:29.227Z,7.50
2022-12-07T08:36:32.852Z,7.26
2022-12-07T08:37:36.098Z,7.05
2022-12-07T08:38:44.951Z,7.07
2022-12-07T08:39:46.671Z,7.37
2022-12-07T08:40:56.660Z,6.96
2022-12-07T08:41:59.806Z,6.55
2022-12-07T08:43:02.921Z,7.17
2022-12-07T08:44:06.264Z,6.97
2022-12-07T08:45:14.744Z,6.65
2022-12-07T08:46:25.404Z,6.89
2022-12-07T08:47:28.617Z,6.56
2022-12-07T08:48:32.313Z,6.73
2022-12-07T08:49:39.090Z,6.41
2022-12-07T08:50:49.133Z,7.24
2022-12-07T08:51:48.114Z,6.88
2022-12-07T08:52:57.067Z,7.08
2022-12-07T08:54:03.318Z,6.78
2022-12-07T08:55:07.413Z,6.50
2022-12-07T08:56:10.851Z,7.03
2022-12-07T08:57:14.114Z,6.57
2022-12-07T08:58:17.509Z,6.61
2022-12-07T08:59:21.671Z,6.17
2022-12-07T09:00:26.334Z,6.55
2022-12-07T09:01:30.341Z,6.70
2022-12-07T09:02:33.570Z,6.60
2022-12-07T09:03:36.807Z,6.31
2022-12-07T09:04:40.042Z,6.81
2022-12-07T09:05:43.384Z,6.78
2022-12-07T09:06:46.946Z,6.39
2022-12-07T09:07:53.770Z,7.39
2022-12-07T09:09:00.528Z,6.65
2022-12-07T09:10:05.067Z,6.92
2022-12-07T09:11:08.397Z,6.90
2022-12-07T09:12:11.711Z,6.31
2022-12-07T09:13:15.076Z,7.12
2022-12-07T09:14:19.282Z,6.39
2022-12-07T09:15:22.546Z,6.77
2022-12-07T09:16:25.876Z,6.59
2022-12-07T09:17:32.656Z,6.18
2022-12-07T09:18:36.024Z,6.95
2022-12-07T09:19:39.634Z,6.29
2022-12-07T09:20:42.816Z,6.86
2022-12-07T09:21:46.080Z,5.84
2022-12-07T09:22:49.305Z,6.06
2022-12-07T09:23:52.596Z,5.87
2022-12-07T09:24:55.692Z,6.50
2022-12-07T09:26:08.888Z,6.16
2022-12-07T09:27:08.130Z,5.27
2022-12-07T09:28:11.258Z,6.36
2022-12-07T09:29:14.431Z,6.89
2022-12-07T09:30:17.743Z,6.12
2022-12-07T09:31:23.909Z,6.03
2022-12-07T09:32:25.937Z,5.77
2022-12-07T09:33:29.114Z,6.08
2022-12-07T09:34:32.684Z,5.94
2022-12-07T09:35:36.053Z,7.08
2022-12-07T09:36:39.374Z,6.02
2022-12-07T09:37:42.462Z,5.86
2022-12-07T09:38:45.624Z,6.76
2022-12-07T09:39:50.447Z,7.74
2022-12-07T09:40:55.661Z,8.44
2022-12-07T09:42:00.554Z,9.87
2022-12-07T09:43:03.826Z,8.69
2022-12-07T09:44:19.605Z,8.17
2022-12-07T09:45:29.320Z,7.65
2022-12-07T09:46:36.376Z,6.31
2022-12-07T09:47:39.553Z,5.70
2022-12-07T09:48:44.436Z,5.92
2022-12-07T09:49:47.676Z,5.63
2022-12-07T09:50:54.514Z,6.39
2022-12-07T09:52:07.268Z,6.04
2022-12-07T09:53:20.086Z,6.38
2022-12-07T09:54:23.440Z,5.69
2022-12-07T09:55:31.337Z,5.29
2022-12-07T09:56:34.575Z,5.31
2022-12-07T09:57:37.707Z,4.91
2022-12-07T09:58:41.080Z,5.46
2022-12-07T09:59:44.300Z,5.48
2022-12-07T10:00:47.358Z,5.74
2022-12-07T10:01:51.127Z,6.28
2022-12-07T10:03:00.210Z,6.42
2022-12-07T10:04:24.727Z,5.73
2022-12-07T10:05:46.371Z,6.19
2022-12-07T10:06:51.470Z,6.71
2022-12-07T10:07:54.664Z,5.94
2022-12-07T10:08:57.899Z,5.24
2022-12-07T10:10:03.994Z,4.91
2022-12-07T10:11:09.078Z,5.58
2022-12-07T10:12:13.844Z,5.39
2022-12-07T10:13:22.821Z,5.42
2022-12-07T10:14:44.123Z,5.97
2022-12-07T10:15:53.347Z,5.66
2022-12-07T10:16:56.898Z,5.82
2022-12-07T10:18:00.743Z,5.64
2022-12-07T10:19:22.222Z,5.64
2022-12-07T10:20:27.257Z,5.05
2022-12-07T10:21:30.471Z,5.59
2022-12-07T10:22:33.696Z,5.95
2022-12-07T10:23:42.629Z,5.23
2022-12-07T10:24:48.059Z,4.68
2022-12-07T10:25:53.119Z,5.31
2022-12-07T10:26:57.418Z,5.57
2022-12-07T10:28:10.003Z,5.85
2022-12-07T10:29:34.652Z,5.08
2022-12-07T10:32:17.070Z,4.97
2022-12-07T10:33:41.399Z,4.67
2022-12-07T10:34:50.430Z,4.81
2022-12-07T10:35:49.860Z,4.96
2022-12-07T10:36:54.459Z,4.61
2022-12-07T10:38:00.072Z,4.69
2022-12-07T10:39:14.864Z,5.01
2022-12-07T10:40:35.923Z,4.57
2022-12-07T10:43:05.065Z,5.43
2022-12-07T10:44:11.839Z,4.73
2022-12-07T10:45:17.872Z,4.84
2022-12-07T10:46:39.847Z,4.74
2022-12-07T10:48:06.069Z,4.53
2022-12-07T10:49:15.666Z,5.11
2022-12-07T10:50:51.178Z,5.34
2022-12-07T10:52:00.720Z,5.44
2022-12-07T10:53:19.374Z,4.75
2022-12-07T10:54:28.995Z,4.91
2022-12-07T10:55:55.335Z,5.11
2022-12-07T10:57:08.281Z,5.23
2022-12-07T10:58:30.267Z,4.85
2022-12-07T10:59:45.942Z,4.52
2022-12-07T11:00:53.096Z,4.67
2022-12-07T11:03:29.100Z,4.51
2022-12-07T11:04:44.696Z,4.45
2022-12-07T11:05:54.201Z,4.53
2022-12-07T11:07:09.935Z,4.75
2022-12-07T11:08:39.096Z,4.73
2022-12-07T11:10:09.801Z,4.48
2022-12-07T11:11:30.240Z,4.62
2022-12-07T11:13:02.476Z,4.76
2022-12-07T11:14:13.107Z,4.25
2022-12-07T11:15:25.794Z,4.77
2022-12-07T11:16:52.160Z,4.19
2022-12-07T11:17:58.914Z,4.23
2022-12-07T11:19:05.563Z,4.83
2022-12-07T11:20:42.539Z,4.47
2022-12-07T11:22:01.276Z,4.27
2022-12-07T11:23:16.700Z,5.01
2022-12-07T11:24:23.227Z,4.74
2022-12-07T11:25:30.786Z,4.96
2022-12-07T11:26:46.620Z,4.51
2022-12-07T11:28:11.409Z,4.56
2022-12-07T11:29:40.899Z,4.60
2022-12-07T11:30:50.755Z,4.64
2022-12-07T11:31:57.745Z,4.33
2022-12-07T11:33:07.540Z,5.27
2022-12-07T11:34:19.949Z,4.31
2022-12-07T11:36:54.889Z,4.52
2022-12-07T11:38:04.300Z,4.69
2022-12-07T11:39:28.893Z,4.46
2022-12-07T11:40:36.473Z,4.51
2022-12-07T11:41:42.755Z,4.39
2022-12-07T11:42:55.636Z,4.68
2022-12-07T11:44:11.253Z,3.87
2022-12-07T11:45:18.077Z,4.32
2022-12-07T11:46:24.986Z,4.13
2022-12-07T11:47:49.977Z,4.18
2022-12-07T11:49:14.591Z,4.69
2022-12-07T11:50:43.750Z,4.42
2022-12-07T11:51:50.449Z,4.26
2022-12-07T11:52:59.845Z,3.96
2022-12-07T11:54:18.402Z,5.02
2022-12-07T11:55:42.871Z,4.28
2022-12-07T11:56:49.527Z,4.80
2022-12-07T11:59:28.863Z,4.42
2022-12-07T12:00:33.588Z,4.55
2022-12-07T12:01:40.349Z,4.67
2022-12-07T12:02:47.141Z,4.43
2022-12-07T12:03:57.054Z,4.34
2022-12-07T12:05:06.857Z,4.26
2022-12-07T12:06:10.526Z,4.94
2022-12-07T12:10:00.469Z,4.41
2022-12-07T12:11:13.328Z,4.12
2022-12-07T12:15:19.881Z,4.66
2022-12-07T12:16:41.071Z,4.88
2022-12-07T12:18:10.507Z,4.37
2022-12-07T12:19:35.172Z,5.14
2022-12-07T12:20:48.202Z,5.88
2022-12-07T12:21:58.432Z,5.30
2022-12-07T12:24:27.734Z,5.26
2022-12-07T12:25:34.452Z,4.56
2022-12-07T12:26:39.130Z,4.93
2022-12-07T12:27:45.761Z,5.21
2022-12-07T12:28:55.347Z,4.94
2022-12-07T12:30:01.272Z,4.77
2022-12-07T12:31:10.957Z,4.81
2022-12-07T12:32:22.959Z,4.74
2022-12-07T12:33:33.468Z,4.39
2022-12-07T12:35:01.624Z,4.16
2022-12-07T12:36:19.000Z,4.67
2022-12-07T12:37:37.976Z,4.19
2022-12-07T12:40:23.776Z,5.03
2022-12-07T12:42:56.082Z,5.71
2022-12-07T12:43:59.304Z,6.40
2022-12-07T12:45:21.216Z,5.58
2022-12-07T12:46:34.268Z,5.20
2022-12-07T12:47:43.610Z,5.49
2022-12-07T12:48:46.768Z,5.46
2022-12-07T12:51:40.037Z,4.75
2022-12-07T12:52:52.781Z,5.23
2022-12-07T12:54:08.630Z,4.31
2022-12-07T12:55:17.162Z,5.71
2022-12-07T12:56:29.916Z,4.93
2022-12-07T12:57:33.359Z,5.30
2022-12-07T12:58:38.643Z,4.72
2022-12-07T12:59:57.243Z,5.78
2022-12-07T13:01:29.856Z,5.29
2022-12-07T13:02:37.072Z,4.72
2022-12-07T13:03:43.743Z,4.64
2022-12-07T13:05:06.720Z,5.00
2022-12-07T13:06:28.929Z,5.70
2022-12-07T13:08:06.718Z,5.32
2022-12-07T13:10:36.009Z,4.88
2022-12-07T13:11:42.800Z,5.72
2022-12-07T13:13:05.648Z,4.49
2022-12-07T13:14:37.778Z,4.51
2022-12-07T13:15:49.048Z,4.64
2022-12-07T13:16:52.709Z,5.07
2022-12-07T13:17:58.434Z,5.72
2022-12-07T13:19:01.562Z,5.36
2022-12-07T13:20:14.159Z,4.42
2022-12-07T13:21:17.396Z,5.36
2022-12-07T13:23:51.827Z,5.14
2022-12-07T13:25:01.711Z,4.98
2022-12-07T13:27:42.020Z,4.51
2022-12-07T13:29:06.749Z,4.77
2022-12-07T17:15:22.989Z,8.26
2022-12-07T17:16:26.918Z,7.98
2022-12-07T17:17:30.224Z,8.34
2022-12-07T17:18:36.248Z,8.03
2022-12-07T17:19:39.554Z,7.59
2022-12-07T17:20:42.789Z,7.90
2022-12-07T17:21:48.283Z,8.13
2022-12-07T17:22:51.643Z,7.62
2022-12-07T17:23:54.726Z,7.65
2022-12-07T17:24:57.800Z,7.84
2022-12-07T17:27:22.958Z,7.07
2022-12-07T17:28:26.076Z,7.92
2022-12-07T17:29:29.266Z,7.85
2022-12-07T17:30:32.541Z,8.09
2022-12-07T17:31:36.586Z,8.53
2022-12-07T17:32:39.780Z,7.49
2022-12-07T17:33:42.968Z,7.97
2022-12-07T17:34:46.062Z,8.02
2022-12-07T17:35:49.167Z,8.23
2022-12-07T17:36:52.269Z,7.94
2022-12-07T17:37:56.511Z,7.96
2022-12-07T17:38:59.733Z,8.20
2022-12-07T17:40:04.109Z,8.34
2022-12-07T17:42:36.198Z,7.76
2022-12-07T17:43:39.754Z,8.61
2022-12-07T17:44:42.962Z,8.34
2022-12-07T17:45:46.128Z,7.79
2022-12-07T17:46:53.759Z,8.64
2022-12-07T17:47:57.033Z,8.52
2022-12-07T17:49:00.884Z,8.73
2022-12-07T17:50:07.397Z,8.10
2022-12-07T17:51:29.202Z,8.17
2022-12-07T17:52:50.735Z,8.56
2022-12-07T17:53:53.916Z,8.45
2022-12-07T17:54:57.177Z,8.00
2022-12-07T17:57:05.614Z,8.34
2022-12-07T17:58:08.764Z,8.58
2022-12-07T17:59:12.120Z,7.65
2022-12-07T18:00:16.590Z,9.51
2022-12-07T18:01:23.846Z,8.45
2022-12-07T18:02:24.841Z,8.83
2022-12-07T18:03:28.085Z,8.95
2022-12-07T18:04:31.225Z,9.06
2022-12-07T18:05:34.516Z,9.23
2022-12-07T18:06:38.298Z,8.90
2022-12-07T18:07:41.425Z,7.87
2022-12-07T18:08:44.806Z,8.81
2022-12-07T18:09:48.217Z,9.24
2022-12-07T18:10:59.818Z,8.73
2022-12-07T18:12:03.389Z,9.11
2022-12-07T18:13:23.469Z,9.52
2022-12-07T18:14:26.809Z,9.57
2022-12-07T18:15:30.314Z,10.01
2022-12-07T18:16:35.040Z,8.56
2022-12-07T18:17:38.467Z,9.58
2022-12-07T18:18:41.763Z,9.54
2022-12-07T18:19:44.875Z,9.09
2022-12-07T18:20:48.256Z,9.76
2022-12-07T18:21:51.375Z,9.22
2022-12-07T18:22:54.520Z,9.61
2022-12-07T18:24:03.226Z,8.80
2022-12-07T18:25:07.327Z,9.20
2022-12-07T18:26:10.985Z,9.39
2022-12-07T18:27:14.244Z,10.05
2022-12-07T18:28:17.689Z,9.23
2022-12-07T18:29:21.036Z,9.26
2022-12-07T18:30:49.578Z,9.25
2022-12-07T18:31:29.786Z,9.33
2022-12-07T18:32:33.675Z,9.95
2022-12-07T18:33:36.912Z,10.12
2022-12-07T18:34:40.851Z,9.06
2022-12-07T18:35:44.611Z,10.07
2022-12-07T18:36:50.870Z,9.06
2022-12-07T18:37:54.195Z,9.63
2022-12-07T18:38:57.523Z,10.14
2022-12-07T18:40:00.718Z,9.78
2022-12-07T18:41:06.047Z,10.58
2022-12-07T18:42:09.367Z,9.99
2022-12-07T18:43:13.094Z,9.28
2022-12-07T18:44:16.849Z,10.44
2022-12-07T18:45:20.118Z,9.02
2022-12-07T18:46:23.887Z,9.69
2022-12-07T18:47:27.097Z,9.48
2022-12-07T18:48:30.475Z,9.54
2022-12-07T18:49:33.687Z,9.89
2022-12-07T18:50:37.129Z,8.99
2022-12-07T18:51:41.272Z,8.53
2022-12-07T18:52:44.577Z,8.68
2022-12-07T18:53:47.833Z,8.85
2022-12-07T18:54:51.070Z,8.49
2022-12-07T18:56:06.143Z,7.67
2022-12-07T18:57:09.296Z,8.42
2022-12-07T18:58:12.608Z,8.41
2022-12-07T18:59:34.204Z,8.28
2022-12-07T19:00:37.717Z,7.68
2022-12-07T19:01:42.314Z,7.91
2022-12-07T19:02:45.605Z,8.14
2022-12-07T19:03:48.790Z,7.34
2022-12-07T19:04:52.176Z,7.64
2022-12-07T19:05:57.309Z,7.35